createdAt,value
2023-02-22T00:01:03.110Z,5.10
2023-02-22T00:03:33.283Z,4.90
2023-02-22T00:06:04.928Z,5.03
2023-02-22T00:08:37.066Z,4.13
2023-02-22T00:11:08.971Z,7.73
2023-02-22T00:13:38.126Z,6.50
2023-02-22T00:16:08.528Z,5.10
2023-02-22T00:18:37.903Z,3.83
2023-02-22T00:21:10.499Z,4.20
2023-02-22T00:23:43.493Z,4.40
2023-02-22T00:26:11.436Z,4.57
2023-02-22T00:28:39.328Z,4.30
2023-02-22T00:31:09.603Z,4.57
2023-02-22T00:33:40.000Z,4.70
2023-02-22T00:36:09.095Z,4.77
2023-02-22T00:38:37.124Z,4.50
2023-02-22T00:41:07.132Z,5.03
2023-02-22T00:43:35.425Z,4.47
2023-02-22T00:46:03.446Z,4.83
2023-02-22T00:48:31.775Z,5.17
2023-02-22T00:50:59.842Z,5.50
2023-02-22T00:53:27.954Z,5.10
2023-02-22T00:55:56.025Z,5.03
2023-02-22T00:58:26.762Z,5.13
2023-02-22T01:00:55.032Z,5.13
2023-02-22T01:03:23.088Z,5.27
2023-02-22T01:05:51.376Z,4.93
2023-02-22T01:08:19.704Z,4.73
2023-02-22T01:10:47.701Z,5.10
2023-02-22T01:13:16.316Z,5.03
2023-02-22T01:15:45.617Z,3.83
2023-02-22T01:18:17.421Z,4.13
2023-02-22T01:20:48.004Z,3.90
2023-02-22T01:23:17.559Z,4.20
2023-02-22T01:25:45.895Z,3.80
2023-02-22T01:28:15.332Z,3.25
2023-02-22T01:30:45.029Z,3.70
2023-02-22T01:33:13.816Z,4.13
2023-02-22T01:35:43.163Z,4.50
2023-02-22T01:38:11.469Z,4.00
2023-02-22T01:40:44.077Z,4.17
2023-02-22T01:43:25.532Z,3.83
2023-02-22T01:46:02.176Z,3.60
2023-02-22T01:48:37.390Z,3.53
2023-02-22T01:51:11.600Z,4.20
2023-02-22T01:53:44.760Z,3.70
2023-02-22T01:56:14.118Z,4.00
2023-02-22T01:58:53.280Z,3.53
2023-02-22T02:01:24.596Z,3.17
2023-02-22T02:03:53.851Z,3.53
2023-02-22T02:06:22.063Z,3.80
2023-02-22T02:08:57.082Z,3.90
2023-02-22T02:11:26.562Z,4.13
2023-02-22T02:13:57.915Z,4.00
2023-02-22T02:16:35.291Z,3.10
2023-02-22T02:19:04.195Z,3.60
2023-02-22T02:22:09.654Z,3.50
2023-02-22T02:25:05.230Z,3.73
2023-02-22T02:27:51.454Z,3.40
2023-02-22T02:30:57.675Z,2.83
2023-02-22T02:33:34.111Z,2.93
2023-02-22T02:36:09.218Z,2.97
2023-02-22T02:38:45.288Z,3.30
2023-02-22T02:41:17.982Z,2.70
2023-02-22T02:43:52.307Z,2.60
2023-02-22T02:46:25.374Z,3.30
2023-02-22T02:48:58.872Z,2.57
2023-02-22T02:51:32.890Z,2.60
2023-02-22T02:54:02.637Z,2.30
2023-02-22T02:56:31.182Z,2.30
2023-02-22T02:58:59.278Z,2.80
2023-02-22T03:01:51.193Z,2.70
2023-02-22T03:04:42.610Z,2.57
2023-02-22T03:07:21.939Z,2.37
2023-02-22T03:10:04.226Z,3.00
2023-02-22T03:12:42.234Z,2.20
2023-02-22T03:15:22.107Z,2.93
2023-02-22T03:17:57.059Z,2.90
2023-02-22T03:20:36.280Z,2.73
2023-02-22T03:23:09.943Z,3.10
2023-02-22T03:25:44.544Z,2.40
2023-02-22T03:28:17.905Z,3.23
2023-02-22T03:30:50.428Z,3.03
2023-02-22T03:33:22.588Z,2.60
2023-02-22T03:35:57.741Z,2.53
2023-02-22T03:38:29.191Z,2.63
2023-02-22T03:41:02.153Z,2.60
2023-02-22T03:43:35.713Z,2.60
2023-02-22T03:46:04.969Z,2.93
2023-02-22T03:48:39.124Z,2.77
2023-02-22T03:51:08.700Z,2.90
2023-02-22T03:53:37.603Z,2.70
2023-02-22T03:56:08.562Z,3.10
2023-02-22T03:58:38.997Z,2.70
2023-02-22T04:01:07.307Z,2.87
2023-02-22T04:03:35.186Z,2.50
2023-02-22T04:06:04.011Z,2.60
2023-02-22T04:08:33.416Z,2.43
2023-02-22T04:11:01.364Z,2.80
2023-02-22T04:13:29.818Z,2.83
2023-02-22T04:15:57.789Z,2.60
2023-02-22T04:18:26.097Z,2.60
2023-02-22T04:20:54.125Z,2.23
2023-02-22T04:23:22.341Z,2.30
2023-02-22T04:25:51.632Z,2.53
2023-02-22T04:28:19.751Z,2.23
2023-02-22T04:30:47.876Z,2.60
2023-02-22T04:33:16.618Z,2.57
2023-02-22T04:35:44.797Z,2.90
2023-02-22T04:38:12.704Z,2.50
2023-02-22T04:40:41.423Z,3.43
2023-02-22T04:43:11.020Z,3.33
2023-02-22T04:45:39.085Z,2.70
2023-02-22T04:48:07.300Z,3.30
2023-02-22T04:50:35.387Z,4.00
2023-02-22T04:53:03.480Z,3.60
2023-02-22T04:55:31.382Z,3.50
2023-02-22T04:57:59.324Z,3.10
2023-02-22T05:00:29.108Z,3.70
2023-02-22T05:02:57.181Z,3.20
2023-02-22T05:05:25.460Z,3.20
2023-02-22T05:07:53.752Z,3.10
2023-02-22T05:10:22.020Z,3.53
2023-02-22T05:12:49.988Z,3.50
2023-02-22T05:15:19.679Z,2.80
2023-02-22T05:17:49.037Z,2.87
2023-02-22T05:20:25.288Z,2.77
2023-02-22T05:22:53.193Z,3.10
2023-02-22T05:25:21.466Z,3.80
2023-02-22T05:27:53.376Z,3.47
2023-02-22T05:30:24.314Z,3.57
2023-02-22T05:32:54.389Z,3.20
2023-02-22T05:35:23.782Z,3.00
2023-02-22T05:37:52.113Z,3.93
2023-02-22T05:40:21.100Z,2.97
2023-02-22T05:42:49.586Z,3.00
2023-02-22T05:45:18.888Z,3.70
2023-02-22T05:47:47.428Z,3.50
2023-02-22T05:50:17.419Z,3.80
2023-02-22T05:52:45.502Z,3.20
2023-02-22T05:55:16.308Z,2.50
2023-02-22T05:57:44.451Z,3.20
2023-02-22T06:00:18.058Z,3.93
2023-02-22T06:02:46.300Z,2.60
2023-02-22T06:05:14.822Z,3.07
2023-02-22T06:07:44.266Z,2.70
2023-02-22T06:10:14.054Z,2.87
2023-02-22T06:12:41.994Z,3.10
2023-02-22T06:15:10.199Z,2.90
2023-02-22T06:17:39.707Z,3.30
2023-02-22T06:20:08.646Z,2.80
2023-02-22T06:22:36.674Z,3.07
2023-02-22T06:25:07.194Z,3.30
2023-02-22T06:27:35.443Z,3.37
2023-02-22T06:30:03.644Z,3.10
2023-02-22T06:32:32.415Z,3.33
2023-02-22T06:35:00.360Z,2.77
2023-02-22T06:37:28.620Z,2.90
2023-02-22T06:39:58.023Z,3.20
2023-02-22T06:42:29.974Z,2.93
2023-02-22T06:44:58.016Z,2.90
2023-02-22T06:47:26.095Z,2.90
2023-02-22T06:49:55.104Z,2.63
2023-02-22T06:52:23.065Z,3.10
2023-02-22T06:54:51.435Z,3.37
2023-02-22T06:57:19.946Z,3.00
2023-02-22T06:59:49.222Z,2.57
2023-02-22T07:02:17.312Z,2.83
2023-02-22T07:04:46.485Z,3.00
2023-02-22T07:07:14.699Z,2.80
2023-02-22T07:09:44.242Z,2.80
2023-02-22T07:12:13.548Z,3.63
2023-02-22T07:14:41.617Z,3.10
2023-02-22T07:17:11.699Z,3.40
2023-02-22T07:19:39.668Z,3.03
2023-02-22T07:22:07.568Z,2.37
2023-02-22T07:24:36.368Z,2.97
2023-02-22T07:27:04.385Z,2.43
2023-02-22T07:29:33.601Z,3.00
2023-02-22T07:32:01.581Z,2.50
2023-02-22T07:34:30.973Z,2.73
2023-02-22T07:36:58.984Z,2.50
2023-02-22T07:39:27.112Z,2.60
2023-02-22T07:41:55.211Z,2.33
2023-02-22T07:44:23.215Z,2.63
2023-02-22T07:46:51.161Z,3.27
2023-02-22T07:49:19.600Z,3.17
2023-02-22T07:51:48.988Z,3.30
2023-02-22T07:54:16.871Z,2.80
2023-02-22T07:56:49.215Z,2.30
2023-02-22T07:59:17.630Z,2.43
2023-02-22T08:01:45.694Z,2.40
2023-02-22T08:04:13.593Z,2.73
2023-02-22T08:06:41.533Z,2.30
2023-02-22T08:09:11.163Z,2.63
2023-02-22T08:11:39.049Z,2.23
2023-02-22T08:14:06.969Z,1.80
2023-02-22T08:16:35.078Z,2.43
2023-02-22T08:19:03.045Z,2.60
2023-02-22T08:21:31.608Z,2.20
2023-02-22T08:23:59.696Z,2.77
2023-02-22T08:26:28.978Z,2.47
2023-02-22T08:28:57.108Z,3.33
2023-02-22T08:31:25.290Z,2.60
2023-02-22T08:33:53.231Z,2.77
2023-02-22T08:36:21.202Z,2.40
2023-02-22T08:38:49.291Z,2.37
2023-02-22T08:41:17.747Z,2.13
2023-02-22T08:43:47.436Z,3.20
2023-02-22T08:46:17.249Z,1.80
2023-02-22T08:48:51.514Z,2.90
2023-02-22T08:51:19.907Z,2.57
2023-02-22T08:53:47.963Z,1.97
2023-02-22T08:56:16.001Z,2.17
2023-02-22T08:58:46.882Z,2.83
2023-02-22T09:01:19.302Z,2.00
2023-02-22T09:03:50.177Z,2.10
2023-02-22T09:06:18.287Z,2.73
2023-02-22T09:08:46.741Z,1.70
2023-02-22T09:11:15.261Z,1.80
2023-02-22T09:13:43.300Z,1.80
2023-02-22T09:16:12.955Z,2.00
2023-02-22T09:18:44.386Z,2.33
2023-02-22T09:21:13.735Z,1.60
2023-02-22T09:23:42.535Z,2.00
2023-02-22T09:26:10.676Z,1.40
2023-02-22T09:28:39.070Z,1.70
2023-02-22T09:31:07.157Z,1.50
2023-02-22T09:33:36.570Z,1.63
2023-02-22T09:36:04.717Z,1.20
2023-02-22T09:38:32.721Z,1.67
2023-02-22T09:41:12.455Z,1.50
2023-02-22T09:43:46.439Z,1.50
2023-02-22T09:46:24.452Z,1.20
2023-02-22T09:49:05.504Z,0.97
2023-02-22T09:51:41.186Z,1.15
2023-02-22T09:54:19.418Z,1.43
2023-02-22T09:56:49.690Z,1.07
2023-02-22T09:59:24.379Z,1.27
2023-02-22T10:02:00.844Z,1.40
2023-02-22T10:04:42.353Z,0.97
2023-02-22T10:07:19.527Z,1.30
2023-02-22T10:09:49.862Z,1.30
2023-02-22T10:12:29.619Z,0.87
2023-02-22T10:15:27.054Z,1.03
2023-02-22T10:18:03.474Z,1.50
2023-02-22T10:20:48.742Z,0.90
2023-02-22T10:23:26.116Z,1.20
2023-02-22T10:26:01.382Z,1.40
2023-02-22T10:28:33.537Z,1.20
2023-02-22T10:31:07.084Z,1.47
2023-02-22T10:33:40.860Z,1.40
2023-02-22T10:36:20.162Z,1.00
2023-02-22T10:38:55.152Z,1.07
2023-02-22T10:41:29.468Z,1.07
2023-02-22T10:43:58.108Z,1.03
2023-02-22T10:46:29.680Z,1.20
2023-02-22T10:49:03.792Z,2.23
2023-02-22T10:51:33.434Z,1.40
2023-02-22T10:54:20.985Z,1.30
2023-02-22T10:56:50.358Z,1.10
2023-02-22T10:59:29.625Z,1.00
2023-02-22T11:01:58.413Z,1.00
2023-02-22T11:04:26.597Z,1.20
2023-02-22T11:07:15.437Z,1.30
2023-02-22T11:09:53.173Z,1.10
2023-02-22T11:12:28.574Z,1.57
2023-02-22T11:14:56.849Z,0.90
2023-02-22T11:17:33.366Z,1.37
2023-02-22T11:20:01.848Z,1.40
2023-02-22T11:22:38.676Z,1.13
2023-02-22T11:25:07.957Z,1.20
2023-02-22T11:27:40.528Z,1.23
2023-02-22T11:30:27.472Z,1.83
2023-02-22T11:32:58.657Z,0.90
2023-02-22T11:35:39.503Z,0.80
2023-02-22T11:38:21.289Z,1.17
2023-02-22T11:41:14.781Z,1.10
2023-02-22T11:43:43.736Z,1.07
2023-02-22T11:46:15.501Z,1.10
2023-02-22T11:48:55.121Z,0.90
2023-02-22T11:51:35.590Z,1.00
2023-02-22T11:54:29.199Z,0.90
2023-02-22T11:57:16.069Z,0.80
2023-02-22T11:59:55.653Z,0.80
2023-02-22T12:02:51.810Z,1.03
2023-02-22T12:05:42.801Z,1.00
2023-02-22T12:08:21.554Z,1.00
2023-02-22T12:11:02.554Z,0.87
2023-02-22T12:13:49.196Z,1.00
2023-02-22T12:16:25.894Z,0.80
2023-02-22T12:19:09.880Z,0.87
2023-02-22T12:21:42.773Z,0.80
2023-02-22T12:24:16.562Z,0.70
2023-02-22T12:26:50.162Z,0.80
2023-02-22T12:29:28.662Z,1.00
2023-02-22T12:32:02.436Z,0.60
2023-02-22T12:34:35.900Z,0.60
2023-02-22T12:37:13.247Z,0.50
2023-02-22T12:39:54.107Z,0.70
2023-02-22T12:42:30.370Z,0.80
2023-02-22T12:45:08.275Z,0.73
2023-02-22T12:47:41.689Z,1.20
2023-02-22T12:50:21.201Z,0.70
2023-02-22T12:52:54.136Z,0.65
2023-02-22T12:55:26.240Z,1.10
2023-02-22T12:58:02.605Z,0.90
2023-02-22T13:00:39.017Z,0.70
2023-02-22T13:03:20.458Z,0.50
2023-02-22T13:05:52.749Z,0.70
2023-02-22T13:08:28.519Z,0.70
2023-02-22T13:11:07.880Z,0.90
2023-02-22T13:13:53.599Z,0.50
2023-02-22T13:16:34.452Z,0.57
2023-02-22T13:19:07.872Z,0.80
2023-02-22T13:21:48.453Z,0.90
2023-02-22T13:24:22.873Z,0.87
2023-02-22T13:26:54.641Z,0.70
2023-02-22T13:29:29.783Z,0.63
2023-02-22T13:32:13.226Z,0.50
2023-02-22T13:35:13.765Z,0.43
2023-02-22T13:38:03.984Z,0.63
2023-02-22T13:41:04.433Z,0.70
2023-02-22T13:43:57.335Z,0.60
2023-02-22T13:46:48.095Z,0.50
2023-02-22T13:49:29.718Z,0.40
2023-02-22T13:51:59.228Z,0.70
2023-02-22T13:54:35.483Z,0.70
2023-02-22T13:57:04.452Z,0.47
2023-02-22T13:59:36.245Z,0.57
2023-02-22T14:02:08.148Z,0.50
2023-02-22T14:04:41.606Z,0.60
2023-02-22T14:07:58.059Z,0.40
2023-02-22T14:10:47.663Z,0.50
2023-02-22T14:13:17.244Z,0.30
2023-02-22T14:16:24.695Z,0.32
2023-02-22T14:19:06.778Z,0.50
2023-02-22T14:21:36.166Z,0.50
2023-02-22T14:24:10.110Z,0.50
2023-02-22T14:26:39.571Z,0.50
2023-02-22T14:29:18.727Z,0.63
2023-02-22T14:32:03.633Z,0.47
2023-02-22T14:34:50.809Z,0.52
2023-02-22T14:37:21.882Z,0.40
2023-02-22T14:39:53.115Z,0.40
2023-02-22T14:42:25.742Z,1.70
2023-02-22T14:45:00.933Z,1.20
2023-02-22T14:47:32.901Z,1.50
2023-02-22T14:50:11.922Z,1.70
2023-02-22T14:52:41.576Z,2.27
2023-02-22T14:55:21.697Z,2.28
2023-02-22T14:58:03.211Z,2.70
2023-02-22T15:00:41.264Z,2.10
2023-02-22T15:03:19.815Z,2.10
2023-02-22T15:05:50.458Z,2.10
2023-02-22T15:08:27.513Z,2.47
2023-02-22T15:10:55.932Z,2.73
2023-02-22T15:13:26.083Z,2.63
2023-02-22T15:16:00.350Z,2.47
2023-02-22T15:18:34.723Z,2.20
2023-02-22T15:21:10.098Z,2.20
2023-02-22T15:23:45.257Z,3.23
2023-02-22T15:26:19.273Z,2.10
2023-02-22T15:28:48.356Z,2.40
2023-02-22T15:31:25.460Z,2.20
2023-02-22T15:33:54.844Z,1.90
2023-02-22T15:36:28.244Z,2.40
2023-02-22T15:38:59.921Z,2.13
2023-02-22T15:41:31.440Z,1.97
2023-02-22T15:44:21.335Z,1.80
2023-02-22T15:46:50.998Z,2.27
2023-02-22T15:49:23.172Z,2.17
2023-02-22T15:52:03.901Z,2.17
2023-02-22T15:54:38.699Z,2.03
2023-02-22T15:57:06.935Z,2.07
2023-02-22T15:59:42.984Z,1.50
2023-02-22T16:02:23.528Z,1.73
2023-02-22T16:05:02.926Z,1.73
2023-02-22T16:07:32.569Z,2.10
2023-02-22T16:10:08.054Z,2.10
2023-02-22T16:12:36.795Z,1.90
2023-02-22T16:15:15.118Z,1.77
2023-02-22T16:17:55.958Z,2.30
2023-02-22T16:20:35.370Z,2.57
2023-02-22T16:23:24.627Z,2.30
2023-02-22T16:26:21.496Z,1.80
2023-02-22T16:28:52.992Z,1.98
2023-02-22T16:31:22.436Z,1.87
2023-02-22T16:33:51.155Z,2.60
2023-02-22T16:36:20.583Z,2.20
2023-02-22T16:38:51.924Z,1.80
2023-02-22T16:41:20.601Z,2.17
2023-02-22T16:43:51.420Z,2.67
2023-02-22T16:46:20.773Z,2.17
2023-02-22T16:48:49.163Z,2.33
2023-02-22T16:51:23.855Z,2.73
2023-02-22T16:53:55.313Z,2.60
2023-02-22T16:56:30.728Z,2.57
2023-02-22T16:59:02.462Z,2.67
2023-02-22T17:01:30.506Z,2.50
2023-02-22T17:03:58.625Z,2.30
2023-02-22T17:06:26.658Z,3.03
2023-02-22T17:08:56.397Z,2.70
2023-02-22T17:11:24.433Z,2.87
2023-02-22T17:13:52.552Z,3.43
2023-02-22T17:16:20.986Z,2.83
2023-02-22T17:18:49.987Z,2.50
2023-02-22T17:21:17.925Z,4.00
2023-02-22T17:23:47.168Z,4.33
2023-02-22T17:26:18.247Z,3.50
2023-02-22T17:28:46.403Z,3.60
2023-02-22T17:31:21.894Z,3.23
2023-02-22T17:33:51.336Z,3.27
2023-02-22T17:36:20.948Z,3.80
2023-02-22T17:38:50.189Z,4.37
2023-02-22T17:41:19.605Z,5.97
2023-02-22T17:43:47.600Z,5.37
2023-02-22T17:46:16.321Z,6.47
2023-02-22T17:48:44.911Z,5.93
2023-02-22T17:51:13.476Z,6.47
2023-02-22T17:53:41.809Z,4.70
2023-02-22T17:56:12.470Z,4.20
2023-02-22T17:58:42.658Z,4.80
2023-02-22T18:01:21.486Z,5.10
2023-02-22T18:03:49.777Z,6.20
2023-02-22T18:06:22.489Z,5.30
2023-02-22T18:08:55.979Z,5.60
2023-02-22T18:11:26.721Z,5.57
2023-02-22T18:13:57.191Z,5.90
2023-02-22T18:16:26.859Z,5.60
2023-02-22T18:18:57.534Z,4.90
2023-02-22T18:21:26.700Z,5.40
2023-02-22T18:23:55.166Z,4.50
2023-02-22T18:26:25.409Z,5.40
2023-02-22T18:28:55.003Z,4.90
2023-02-22T18:31:24.493Z,6.13
2023-02-22T18:33:53.960Z,6.37
2023-02-22T18:36:23.970Z,7.40
2023-02-22T18:38:53.297Z,6.95
2023-02-22T18:41:25.664Z,6.17
2023-02-22T18:43:59.119Z,6.13
2023-02-22T18:46:27.760Z,5.43
2023-02-22T18:48:57.678Z,6.53
2023-02-22T18:51:27.250Z,6.00
2023-02-22T18:54:00.360Z,5.20
2023-02-22T18:56:30.614Z,5.80
2023-02-22T18:59:01.931Z,4.95
2023-02-22T19:01:31.382Z,5.60
2023-02-22T19:04:01.217Z,5.97
2023-02-22T19:06:29.338Z,5.53
2023-02-22T19:09:01.114Z,6.03
2023-02-22T19:11:29.352Z,7.40
2023-02-22T19:13:59.666Z,6.60
2023-02-22T19:16:29.066Z,6.43
2023-02-22T19:18:58.306Z,6.20
2023-02-22T19:21:27.887Z,6.40
2023-02-22T19:23:55.834Z,6.93
2023-02-22T19:26:25.786Z,6.80
2023-02-22T19:28:55.597Z,6.97
2023-02-22T19:31:29.602Z,7.53
2023-02-22T19:34:01.815Z,9.17
2023-02-22T19:36:30.334Z,7.67
2023-02-22T19:39:01.568Z,7.80
2023-02-22T19:41:29.785Z,8.70
2023-02-22T19:43:58.130Z,8.43
2023-02-22T19:46:28.540Z,7.47
2023-02-22T19:48:56.782Z,8.00
2023-02-22T19:51:27.905Z,9.13
2023-02-22T19:53:58.884Z,7.75
2023-02-22T19:56:27.838Z,8.40
2023-02-22T19:58:57.400Z,8.37
2023-02-22T20:01:29.461Z,9.10
2023-02-22T20:04:00.143Z,8.57
2023-02-22T20:06:30.705Z,7.67
2023-02-22T20:08:58.831Z,9.00
2023-02-22T20:11:27.705Z,7.80
2023-02-22T20:13:56.625Z,8.10
2023-02-22T20:16:25.016Z,8.30
2023-02-22T20:18:56.858Z,7.90
2023-02-22T20:21:30.883Z,8.23
2023-02-22T20:23:59.320Z,8.83
2023-02-22T20:26:30.154Z,8.13
2023-02-22T20:28:59.563Z,9.30
2023-02-22T20:31:29.555Z,8.03
2023-02-22T20:34:00.871Z,9.90
2023-02-22T20:36:31.129Z,9.47
2023-02-22T20:39:00.491Z,9.40
2023-02-22T20:41:30.215Z,8.03
2023-02-22T20:43:59.045Z,8.40
2023-02-22T20:46:29.007Z,9.30
2023-02-22T20:48:59.411Z,8.60
2023-02-22T20:51:29.030Z,8.20
2023-02-22T20:53:59.831Z,9.20
2023-02-22T20:56:29.487Z,8.47
2023-02-22T20:58:58.271Z,8.97
2023-02-22T21:01:26.600Z,8.47
2023-02-22T21:03:55.120Z,9.57
2023-02-22T21:06:24.685Z,9.27
2023-02-22T21:08:55.099Z,9.27
2023-02-22T21:11:25.412Z,9.77
2023-02-22T21:13:53.629Z,8.23
2023-02-22T21:16:25.265Z,8.30
2023-02-22T21:18:54.125Z,8.83
2023-02-22T21:21:22.881Z,9.40
2023-02-22T21:23:54.175Z,9.13
2023-02-22T21:26:24.553Z,10.03
2023-02-22T21:28:53.232Z,9.03
2023-02-22T21:31:23.964Z,8.57
2023-02-22T21:33:54.098Z,9.23
2023-02-22T21:36:25.568Z,8.80
2023-02-22T21:38:57.681Z,9.07
2023-02-22T21:41:27.850Z,9.73
2023-02-22T21:43:57.163Z,8.77
2023-02-22T21:46:25.395Z,8.23
2023-02-22T21:48:53.600Z,8.27
2023-02-22T21:51:23.270Z,8.97
2023-02-22T21:53:53.397Z,9.17
2023-02-22T21:56:27.427Z,8.63
2023-02-22T21:58:59.421Z,8.48
2023-02-22T22:01:28.381Z,9.43
2023-02-22T22:04:00.301Z,9.03
2023-02-22T22:06:29.677Z,9.95
2023-02-22T22:08:59.700Z,7.97
2023-02-22T22:11:30.764Z,8.68
2023-02-22T22:13:59.759Z,9.00
2023-02-22T22:16:30.214Z,8.87
2023-02-22T22:18:58.734Z,9.90
2023-02-22T22:21:27.145Z,8.97
2023-02-22T22:23:56.200Z,9.93
2023-02-22T22:26:26.415Z,9.53
2023-02-22T22:28:59.048Z,10.00
2023-02-22T22:31:28.789Z,9.57
2023-02-22T22:33:57.831Z,10.00
2023-02-22T22:36:27.807Z,9.30
2023-02-22T22:38:58.447Z,9.27
2023-02-22T22:41:28.824Z,8.60
2023-02-22T22:43:58.064Z,9.73
2023-02-22T22:46:26.037Z,9.27
2023-02-22T22:48:53.970Z,10.57
2023-02-22T22:51:22.746Z,9.00
2023-02-22T22:53:51.768Z,10.40
2023-02-22T22:56:21.924Z,9.20
2023-02-22T22:58:51.760Z,9.87
2023-02-22T23:01:27.161Z,9.50
2023-02-22T23:03:56.742Z,9.50
2023-02-22T23:06:26.066Z,8.93
2023-02-22T23:09:00.127Z,11.23
2023-02-22T23:11:29.808Z,9.97
2023-02-22T23:14:00.118Z,10.77
2023-02-22T23:16:29.951Z,9.20
2023-02-22T23:18:58.649Z,9.40
2023-02-22T23:21:26.845Z,10.00
2023-02-22T23:23:58.182Z,9.10
2023-02-22T23:26:26.943Z,8.83
2023-02-22T23:28:56.762Z,9.20
2023-02-22T23:31:25.459Z,10.17
2023-02-22T23:33:55.750Z,8.90
2023-02-22T23:36:23.848Z,11.53
2023-02-22T23:38:51.828Z,10.67
2023-02-22T23:41:20.459Z,9.93
2023-02-22T23:43:48.665Z,8.70
2023-02-22T23:46:19.572Z,10.97
2023-02-22T23:48:51.654Z,9.93
2023-02-22T23:51:25.454Z,10.90
2023-02-22T23:53:55.891Z,9.03
2023-02-22T23:56:26.793Z,10.07
2023-02-22T23:58:57.244Z,9.80
